Time;durP1;ratioP1;P1;durP2;ratioP2;P2;SDS_P1;SDS_P2;PMS_P1;PMS_P2;Temp;Humidity;BMP_temperature;BMP_pressure;BME280_temperature;BME280_humidity;BME280_pressure;Samples;Min_cycle;Max_cycle;Signal;HPM_P1;HPM_P2
2021/01/16 00:01:05;;;;;;;56.47;28.95;;;3.10;99.90;;;;;;5022990;28;20033;-69
2021/01/16 00:03:32;;;;;;;56.28;31.63;;;3.10;99.90;;;;;;5026544;28;20034;-69
2021/01/16 00:06:00;;;;;;;64.03;32.55;;;3.00;99.90;;;;;;5026361;28;20034;-69
2021/01/16 00:08:27;;;;;;;59.78;32.20;;;3.00;99.90;;;;;;5029323;28;20018;-69
2021/01/16 00:11:00;;;;;;;60.00;30.58;;;3.00;99.90;;;;;;5029526;28;20375;-68
2021/01/16 00:13:27;;;;;;;55.33;30.55;;;3.10;99.90;;;;;;5025836;28;20056;-69
2021/01/16 00:15:54;;;;;;;54.45;30.17;;;3.10;99.90;;;;;;5018867;28;20431;-68
2021/01/16 00:18:22;;;;;;;56.58;30.65;;;3.00;99.90;;;;;;5027795;28;20441;-69
2021/01/16 00:20:53;;;;;;;52.72;30.08;;;3.00;99.90;;;;;;5030916;28;20424;-68
2021/01/16 00:23:21;;;;;;;63.22;32.50;;;3.00;99.90;;;;;;5032055;28;20029;-69
2021/01/16 00:25:47;;;;;;;55.63;31.20;;;3.10;99.90;;;;;;5029708;28;20519;-69
2021/01/16 00:33:31;;;;;;;56.80;30.60;;;3.10;99.90;;;;;;5069043;22;20333;-69
2021/01/16 00:38:51;;;;;;;60.92;30.60;;;3.10;99.90;;;;;;5034771;22;20539;-69
2021/01/16 00:41:17;;;;;;;60.72;33.15;;;3.10;99.90;;;;;;5021046;28;20116;-69
2021/01/16 00:43:43;;;;;;;60.42;32.58;;;3.10;99.90;;;;;;5041785;28;20057;-69
2021/01/16 00:46:08;;;;;;;57.15;31.85;;;3.10;99.90;;;;;;5024969;28;20030;-69
2021/01/16 00:48:34;;;;;;;61.72;31.33;;;3.10;99.90;;;;;;5043440;28;20126;-69
2021/01/16 00:50:59;;;;;;;56.65;31.90;;;3.10;99.90;;;;;;5050698;28;20068;-69
2021/01/16 00:53:25;;;;;;;54.55;29.95;;;3.00;99.90;;;;;;5043132;28;20025;-69
2021/01/16 00:55:51;;;;;;;54.92;30.13;;;3.00;99.90;;;;;;5052328;28;20524;-69
2021/01/16 00:58:18;;;;;;;55.40;29.45;;;2.90;99.90;;;;;;5042748;28;20047;-69
2021/01/16 01:00:46;;;;;;;57.03;30.38;;;2.90;99.90;;;;;;5049698;28;20027;-69
2021/01/16 01:03:16;;;;;;;55.47;28.40;;;2.90;99.90;;;;;;5049064;28;20052;-69
2021/01/16 01:05:43;;;;;;;53.55;28.30;;;2.90;99.90;;;;;;5044895;28;20435;-69
2021/01/16 01:08:08;;;;;;;53.40;27.83;;;2.90;99.90;;;;;;5047214;28;20036;-69
2021/01/16 01:10:41;;;;;;;48.03;26.90;;;2.90;99.90;;;;;;5049402;28;20033;-69
2021/01/16 01:13:07;;;;;;;50.33;27.13;;;3.00;99.90;;;;;;5049457;28;20112;-69
2021/01/16 01:15:32;;;;;;;52.25;27.92;;;2.90;99.90;;;;;;5033404;28;20453;-69
2021/01/16 01:18:00;;;;;;;52.47;27.58;;;3.00;99.90;;;;;;5044674;28;20481;-69
2021/01/16 01:20:26;;;;;;;52.72;27.52;;;3.00;99.90;;;;;;5040568;28;20024;-69
2021/01/16 01:22:53;;;;;;;57.13;31.30;;;3.00;99.90;;;;;;5049601;28;20021;-69
2021/01/16 01:25:21;;;;;;;54.15;28.33;;;3.00;99.90;;;;;;5050566;28;20021;-69
2021/01/16 01:27:52;;;;;;;54.67;29.00;;;3.00;99.90;;;;;;5048239;28;20480;-69
2021/01/16 01:30:20;;;;;;;56.35;29.42;;;3.00;99.90;;;;;;5051993;28;20029;-69
2021/01/16 01:32:46;;;;;;;57.67;29.88;;;3.10;99.90;;;;;;5049650;28;20642;-69
2021/01/16 01:35:12;;;;;;;53.00;27.90;;;3.10;99.90;;;;;;5029005;28;20026;-69
2021/01/16 01:37:46;;;;;;;52.25;28.10;;;3.00;99.90;;;;;;5045663;28;20104;-69
2021/01/16 01:40:14;;;;;;;49.80;25.92;;;3.00;99.90;;;;;;5045586;28;20099;-69
2021/01/16 01:42:40;;;;;;;55.75;27.95;;;3.00;99.90;;;;;;5047709;28;20123;-69
2021/01/16 01:45:09;;;;;;;51.28;27.20;;;3.00;99.90;;;;;;5049907;28;20025;-69
2021/01/16 01:47:36;;;;;;;51.03;26.08;;;2.80;99.90;;;;;;5046489;28;20017;-69
2021/01/16 01:50:04;;;;;;;51.63;26.95;;;2.90;99.90;;;;;;5046331;28;20047;-70
2021/01/16 01:52:31;;;;;;;50.40;27.77;;;3.00;99.90;;;;;;5041048;28;20036;-70
2021/01/16 01:54:57;;;;;;;50.35;25.98;;;3.00;99.90;;;;;;5041637;28;20108;-70
2021/01/16 01:57:25;;;;;;;55.35;27.13;;;3.00;99.90;;;;;;5048769;28;20033;-71
2021/01/16 01:59:53;;;;;;;46.90;25.90;;;3.10;99.90;;;;;;5047184;28;20027;-69
2021/01/16 02:02:20;;;;;;;50.08;25.52;;;3.00;99.90;;;;;;5028160;28;20108;-70
2021/01/16 02:04:47;;;;;;;48.13;25.15;;;3.00;99.90;;;;;;5049083;28;20495;-69
2021/01/16 02:07:27;;;;;;;45.40;25.83;;;3.00;99.90;;;;;;5046773;28;20039;-70
2021/01/16 02:09:54;;;;;;;47.95;25.90;;;3.00;99.90;;;;;;5046412;28;20107;-70
2021/01/16 02:12:22;;;;;;;46.55;25.67;;;3.10;99.90;;;;;;5045998;28;20037;-70
2021/01/16 02:15:19;;;;;;;46.80;24.70;;;2.90;99.90;;;;;;5047446;28;20029;-70
2021/01/16 02:17:49;;;;;;;45.67;26.00;;;2.80;99.90;;;;;;5049010;28;20041;-70
2021/01/16 02:20:26;;;;;;;48.25;26.02;;;2.90;99.90;;;;;;5048232;28;20095;-70
2021/01/16 02:23:15;;;;;;;52.03;28.60;;;3.00;99.90;;;;;;5046905;28;20028;-70
2021/01/16 02:25:41;;;;;;;52.75;28.73;;;3.10;99.90;;;;;;5030134;28;20025;-70
2021/01/16 02:28:17;;;;;;;53.95;29.02;;;3.10;99.90;;;;;;5048126;28;20075;-70
2021/01/16 02:30:44;;;;;;;51.33;27.10;;;3.10;99.90;;;;;;5047190;28;20013;-70
2021/01/16 02:33:17;;;;;;;51.10;28.42;;;3.20;99.90;;;;;;5050218;28;20036;-70
2021/01/16 02:36:08;;;;;;;54.08;26.73;;;3.20;99.90;;;;;;5049596;28;20025;-70
2021/01/16 02:38:49;;;;;;;51.13;27.63;;;3.20;99.90;;;;;;5043616;28;20048;-70
2021/01/16 02:41:31;;;;;;;50.72;27.05;;;3.20;99.90;;;;;;5042217;28;20104;-69
2021/01/16 02:44:13;;;;;;;49.83;27.10;;;3.10;99.90;;;;;;5042720;28;20044;-69
2021/01/16 02:46:49;;;;;;;51.40;25.50;;;3.10;99.90;;;;;;5045790;28;20029;-70
2021/01/16 02:49:34;;;;;;;47.63;25.17;;;3.10;99.90;;;;;;5043327;28;20041;-70
2021/01/16 02:52:13;;;;;;;47.22;24.75;;;3.00;99.90;;;;;;5045052;28;20527;-70
2021/01/16 02:54:41;;;;;;;46.67;25.50;;;3.00;99.90;;;;;;5045840;28;20116;-70
2021/01/16 02:57:08;;;;;;;52.88;26.67;;;3.00;99.90;;;;;;5047498;28;20033;-70
2021/01/16 02:59:42;;;;;;;48.65;26.45;;;2.90;99.90;;;;;;5044750;28;20029;-70
2021/01/16 03:02:11;;;;;;;48.03;26.02;;;2.90;99.90;;;;;;5043500;28;20021;-70
2021/01/16 03:04:38;;;;;;;47.92;26.60;;;2.90;99.90;;;;;;5049421;28;20029;-70
2021/01/16 03:07:05;;;;;;;52.45;25.75;;;3.00;99.90;;;;;;5031042;28;20056;-70
2021/01/16 03:09:33;;;;;;;43.83;25.92;;;3.00;99.90;;;;;;5042486;28;20029;-70
2021/01/16 03:11:58;;;;;;;54.85;26.75;;;3.00;99.90;;;;;;5046001;28;20100;-69
2021/01/16 03:14:27;;;;;;;54.55;27.67;;;3.10;99.90;;;;;;5050007;28;20556;-70
2021/01/16 03:17:09;;;;;;;44.83;25.83;;;3.10;99.90;;;;;;5050292;28;20068;-69
2021/01/16 03:19:37;;;;;;;46.03;27.30;;;3.20;99.90;;;;;;5045620;28;20029;-69
2021/01/16 03:22:19;;;;;;;47.47;25.73;;;3.10;99.90;;;;;;5052586;28;20477;-69
2021/01/16 03:24:51;;;;;;;46.97;25.10;;;3.20;99.90;;;;;;5054914;28;20109;-69
2021/01/16 03:27:17;;;;;;;46.27;24.90;;;3.10;99.90;;;;;;5030608;28;20110;-69
2021/01/16 03:29:43;;;;;;;47.45;25.33;;;3.10;99.90;;;;;;5051862;28;20025;-69
2021/01/16 03:32:10;;;;;;;43.15;23.40;;;3.10;99.90;;;;;;5048146;28;20065;-69
2021/01/16 03:34:37;;;;;;;45.50;24.92;;;3.00;99.90;;;;;;5047524;28;20029;-69
2021/01/16 03:37:03;;;;;;;52.65;26.42;;;3.00;99.90;;;;;;5051976;28;20480;-69
2021/01/16 03:39:29;;;;;;;47.72;25.90;;;3.00;99.90;;;;;;5049729;28;20120;-69
2021/01/16 03:41:55;;;;;;;43.00;23.77;;;3.00;99.90;;;;;;5049681;28;20100;-69
2021/01/16 03:44:21;;;;;;;47.83;24.95;;;3.00;99.90;;;;;;5050058;28;20040;-69
2021/01/16 03:46:47;;;;;;;47.13;24.30;;;3.00;99.90;;;;;;5053384;28;20492;-69
2021/01/16 03:49:13;;;;;;;47.22;24.48;;;3.00;99.90;;;;;;5053144;28;20033;-69
2021/01/16 03:51:38;;;;;;;43.88;23.40;;;3.00;99.90;;;;;;5049245;28;20026;-69
2021/01/16 03:54:04;;;;;;;45.88;23.35;;;3.00;99.90;;;;;;5049667;28;20037;-69
2021/01/16 03:56:30;;;;;;;49.45;24.42;;;3.00;99.90;;;;;;5046614;28;20021;-69
2021/01/16 03:58:56;;;;;;;46.40;24.63;;;2.90;99.90;;;;;;5051063;28;20489;-69
2021/01/16 04:01:21;;;;;;;48.80;24.13;;;3.00;99.90;;;;;;5051983;28;20018;-69
2021/01/16 04:03:47;;;;;;;48.92;26.33;;;2.90;99.90;;;;;;5049692;28;20074;-69
2021/01/16 04:06:16;;;;;;;48.38;26.33;;;3.00;99.90;;;;;;5051030;28;20429;-69
2021/01/16 04:08:42;;;;;;;43.50;23.17;;;3.00;99.90;;;;;;5045129;28;20460;-69
2021/01/16 04:11:08;;;;;;;48.15;26.27;;;3.00;99.90;;;;;;5049581;28;20107;-69
2021/01/16 04:13:34;;;;;;;42.30;23.65;;;2.90;99.90;;;;;;5050286;28;20496;-69
2021/01/16 04:16:00;;;;;;;45.03;23.60;;;2.90;99.90;;;;;;5046123;28;20083;-69
2021/01/16 04:18:26;;;;;;;41.88;22.40;;;2.80;99.90;;;;;;5047818;28;20064;-69
2021/01/16 04:20:51;;;;;;;47.95;24.65;;;2.90;99.90;;;;;;5050550;28;20032;-69
2021/01/16 04:23:17;;;;;;;45.97;23.20;;;2.90;99.90;;;;;;5050024;28;20044;-69
2021/01/16 04:25:43;;;;;;;45.30;22.90;;;3.00;99.90;;;;;;5050543;28;20031;-68
2021/01/16 04:28:09;;;;;;;44.97;24.17;;;3.00;99.90;;;;;;5053949;28;20028;-69
2021/01/16 04:30:34;;;;;;;44.17;23.70;;;2.90;99.90;;;;;;5051533;28;20033;-69
2021/01/16 04:33:00;;;;;;;47.65;23.83;;;2.90;99.90;;;;;;5045859;28;20038;-69
2021/01/16 04:35:26;;;;;;;45.60;24.00;;;3.00;99.90;;;;;;5028100;28;20025;-69
2021/01/16 04:37:51;;;;;;;44.53;23.52;;;3.00;99.90;;;;;;5029672;28;20049;-69
2021/01/16 04:40:17;;;;;;;45.33;24.52;;;3.00;99.90;;;;;;5045820;28;20025;-69
2021/01/16 04:42:45;;;;;;;41.50;23.42;;;3.10;99.90;;;;;;5049616;28;20415;-69
2021/01/16 04:45:14;;;;;;;44.30;23.80;;;3.10;99.90;;;;;;5046314;28;20025;-69
2021/01/16 04:47:42;;;;;;;42.47;22.52;;;3.10;99.90;;;;;;5050313;28;20481;-69
2021/01/16 04:50:12;;;;;;;46.75;23.83;;;3.00;99.90;;;;;;5052307;28;20032;-69
2021/01/16 04:52:38;;;;;;;48.10;24.35;;;3.00;99.90;;;;;;5050252;28;20040;-69
2021/01/16 04:55:07;;;;;;;43.50;23.85;;;3.00;99.90;;;;;;5053908;28;20087;-69
2021/01/16 04:57:33;;;;;;;44.45;24.23;;;3.00;99.90;;;;;;5049582;28;20071;-69
2021/01/16 04:59:59;;;;;;;44.80;23.38;;;3.00;99.90;;;;;;5044483;28;20057;-69
2021/01/16 05:02:25;;;;;;;45.38;22.88;;;3.00;99.90;;;;;;5045591;28;20029;-69
2021/01/16 05:04:51;;;;;;;44.28;23.42;;;3.10;99.90;;;;;;5051823;28;20074;-69
2021/01/16 05:07:19;;;;;;;52.40;23.73;;;3.10;99.90;;;;;;5049985;28;20021;-69
2021/01/16 05:09:46;;;;;;;43.90;23.60;;;3.10;99.90;;;;;;5047249;28;20029;-69
2021/01/16 05:12:32;;;;;;;41.15;23.02;;;3.10;99.90;;;;;;5048562;28;20396;-69
2021/01/16 05:15:06;;;;;;;59.55;35.95;;;3.10;99.90;;;;;;5047873;28;20078;-69
2021/01/16 05:17:39;;;;;;;49.08;22.85;;;3.10;99.90;;;;;;5049279;28;20025;-69
2021/01/16 05:20:07;;;;;;;44.22;23.65;;;3.00;99.90;;;;;;5048202;28;20025;-69
2021/01/16 05:22:32;;;;;;;40.88;22.52;;;3.10;99.90;;;;;;5046767;28;20017;-69
2021/01/16 05:25:01;;;;;;;40.45;22.90;;;3.10;99.90;;;;;;5050960;28;20385;-69
2021/01/16 05:27:33;;;;;;;44.40;22.85;;;3.10;99.90;;;;;;5047238;28;20055;-69
2021/01/16 05:30:08;;;;;;;43.65;23.38;;;3.10;99.90;;;;;;5051911;28;20021;-69
2021/01/16 05:32:34;;;;;;;44.67;23.85;;;3.10;99.90;;;;;;5044412;28;20111;-69
2021/01/16 05:35:20;;;;;;;45.47;24.42;;;3.10;99.90;;;;;;5050428;28;20481;-69
2021/01/16 05:37:47;;;;;;;44.05;23.60;;;3.10;99.90;;;;;;5047352;28;20045;-69
2021/01/16 05:40:13;;;;;;;43.72;23.40;;;3.10;99.90;;;;;;5029149;28;20396;-69
2021/01/16 05:42:39;;;;;;;44.35;23.90;;;3.10;99.90;;;;;;5050101;28;20532;-69
2021/01/16 05:45:08;;;;;;;45.83;24.88;;;3.10;99.90;;;;;;5046949;28;20121;-69
2021/01/16 05:47:35;;;;;;;44.60;24.40;;;3.10;99.90;;;;;;5045996;28;20034;-69
2021/01/16 05:50:01;;;;;;;43.30;24.15;;;3.20;99.90;;;;;;5049569;28;20465;-69
2021/01/16 05:52:27;;;;;;;40.83;22.13;;;3.20;99.90;;;;;;5043135;28;20052;-69
2021/01/16 05:54:58;;;;;;;47.80;25.33;;;3.10;99.90;;;;;;5046957;28;20029;-69
2021/01/16 05:57:24;;;;;;;43.25;21.88;;;3.10;99.90;;;;;;5049491;28;20029;-69
2021/01/16 05:59:56;;;;;;;42.55;23.35;;;3.10;99.90;;;;;;5047270;28;20493;-69
2021/01/16 06:02:23;;;;;;;40.60;23.77;;;3.10;99.90;;;;;;5048540;28;20025;-69
2021/01/16 06:04:51;;;;;;;43.25;23.17;;;3.10;99.90;;;;;;5048720;28;20056;-69
2021/01/16 06:07:22;;;;;;;41.65;22.67;;;3.20;99.90;;;;;;5045898;28;20112;-69
2021/01/16 06:09:48;;;;;;;38.30;21.35;;;3.10;99.90;;;;;;5042999;28;20029;-69
2021/01/16 06:12:17;;;;;;;41.42;22.70;;;3.10;99.90;;;;;;5050468;28;20044;-69
2021/01/16 06:14:44;;;;;;;42.05;23.63;;;3.10;99.90;;;;;;5049981;28;20049;-69
2021/01/16 06:17:14;;;;;;;44.00;24.23;;;3.10;99.90;;;;;;5046947;28;20072;-69
2021/01/16 06:19:48;;;;;;;43.22;24.88;;;3.10;99.90;;;;;;5046719;28;20033;-69
2021/01/16 06:22:16;;;;;;;44.35;24.33;;;3.10;99.90;;;;;;5048403;28;20025;-69
2021/01/16 06:24:46;;;;;;;43.08;23.95;;;3.20;99.90;;;;;;5029185;28;20362;-69
2021/01/16 06:27:24;;;;;;;47.80;25.88;;;3.20;99.90;;;;;;5049041;28;20055;-69
2021/01/16 06:30:05;;;;;;;45.22;24.98;;;3.10;99.90;;;;;;5024474;28;20040;-69
2021/01/16 06:32:30;;;;;;;51.63;26.80;;;3.20;99.90;;;;;;5048513;28;20060;-69
2021/01/16 06:35:07;;;;;;;43.47;22.58;;;3.10;99.90;;;;;;5048472;28;20076;-69
2021/01/16 06:37:32;;;;;;;45.13;22.80;;;3.10;99.90;;;;;;5046716;28;20068;-69
2021/01/16 06:39:59;;;;;;;45.50;24.20;;;3.20;99.90;;;;;;5043853;28;20069;-69
2021/01/16 06:42:28;;;;;;;39.95;21.70;;;3.20;99.90;;;;;;5045606;28;20029;-69
2021/01/16 06:45:10;;;;;;;43.40;23.48;;;3.10;99.90;;;;;;5048286;28;20472;-69
2021/01/16 06:47:38;;;;;;;51.55;24.38;;;3.10;99.90;;;;;;5042638;28;20057;-69
2021/01/16 06:50:07;;;;;;;42.65;23.20;;;3.00;99.90;;;;;;5049251;28;20056;-69
2021/01/16 06:52:37;;;;;;;47.72;24.35;;;3.10;99.90;;;;;;5045119;28;20043;-69
2021/01/16 06:55:05;;;;;;;43.50;24.52;;;3.10;99.90;;;;;;5047911;28;20078;-69
2021/01/16 06:57:32;;;;;;;42.25;20.27;;;3.10;99.90;;;;;;5031864;28;20389;-69
2021/01/16 07:00:00;;;;;;;37.33;21.08;;;3.10;99.90;;;;;;5048891;28;20107;-69
2021/01/16 07:02:30;;;;;;;48.33;23.77;;;3.00;99.90;;;;;;5044648;28;20445;-69
2021/01/16 07:04:57;;;;;;;38.33;21.40;;;3.10;99.90;;;;;;5046664;28;20075;-69
2021/01/16 07:07:31;;;;;;;41.25;21.65;;;3.00;99.90;;;;;;5046957;28;20017;-69
2021/01/16 07:10:10;;;;;;;39.35;22.20;;;3.00;99.90;;;;;;5045523;28;20036;-69
2021/01/16 07:12:37;;;;;;;40.42;20.52;;;3.00;99.90;;;;;;5047793;28;20025;-69
2021/01/16 07:15:07;;;;;;;44.90;22.42;;;3.10;99.90;;;;;;5045518;28;20036;-69
2021/01/16 07:17:33;;;;;;;39.15;22.00;;;3.10;99.90;;;;;;5021975;28;20055;-70
2021/01/16 07:20:00;;;;;;;41.13;21.73;;;3.10;99.90;;;;;;5044712;28;20078;-69
2021/01/16 07:22:30;;;;;;;48.58;22.50;;;3.20;99.90;;;;;;5049227;28;20424;-69
2021/01/16 07:24:57;;;;;;;38.20;21.25;;;3.10;99.90;;;;;;5048627;28;20021;-69
2021/01/16 07:27:25;;;;;;;40.78;22.65;;;3.10;99.90;;;;;;5044473;28;20024;-69
2021/01/16 07:29:51;;;;;;;41.55;21.98;;;3.10;99.90;;;;;;5047784;28;20029;-69
2021/01/16 07:32:16;;;;;;;44.33;22.58;;;3.10;99.90;;;;;;5041044;28;20420;-69
2021/01/16 07:34:45;;;;;;;46.00;23.30;;;3.10;99.90;;;;;;5043027;28;20083;-69
2021/01/16 07:37:11;;;;;;;41.92;21.88;;;3.10;99.90;;;;;;5049507;28;20048;-69
2021/01/16 07:39:43;;;;;;;39.33;22.23;;;3.10;99.90;;;;;;5049692;28;20083;-69
2021/01/16 07:42:12;;;;;;;39.38;21.13;;;3.00;99.90;;;;;;5046000;28;20024;-69
2021/01/16 07:44:45;;;;;;;44.00;22.60;;;3.00;99.90;;;;;;5049846;28;20029;-69
2021/01/16 07:47:21;;;;;;;39.00;21.45;;;3.10;99.90;;;;;;5051572;28;20070;-69
2021/01/16 07:49:57;;;;;;;40.63;22.50;;;3.00;99.90;;;;;;5053809;28;20033;-69
2021/01/16 07:52:25;;;;;;;39.42;22.38;;;3.10;99.90;;;;;;5047215;28;20021;-69
2021/01/16 07:55:09;;;;;;;38.95;20.50;;;3.10;99.90;;;;;;5034352;28;20074;-69
2021/01/16 07:57:35;;;;;;;41.22;23.10;;;3.10;99.90;;;;;;5051539;28;20036;-69
2021/01/16 08:00:07;;;;;;;42.72;22.25;;;3.10;99.90;;;;;;5042671;28;20024;-69
2021/01/16 08:02:39;;;;;;;41.07;21.93;;;3.10;99.90;;;;;;5052070;28;20096;-70
2021/01/16 08:05:16;;;;;;;43.47;22.23;;;3.10;99.90;;;;;;5048925;28;20021;-69
2021/01/16 08:08:03;;;;;;;42.72;22.38;;;3.10;99.90;;;;;;5048943;28;20014;-69
2021/01/16 08:10:29;;;;;;;44.90;25.58;;;3.10;99.90;;;;;;5050543;28;20036;-69
2021/01/16 08:12:59;;;;;;;40.85;22.60;;;3.10;99.90;;;;;;5051450;28;20025;-69
2021/01/16 08:15:30;;;;;;;44.72;24.52;;;3.00;99.90;;;;;;5051504;28;20063;-69
2021/01/16 08:17:58;;;;;;;44.47;25.30;;;3.10;99.90;;;;;;5051994;28;20048;-69
2021/01/16 08:20:29;;;;;;;37.28;22.23;;;3.10;99.90;;;;;;5045807;28;20112;-70
2021/01/16 08:22:57;;;;;;;44.42;22.38;;;3.10;99.90;;;;;;5044516;28;20036;-72
2021/01/16 08:25:28;;;;;;;115.90;63.33;;;3.10;99.90;;;;;;5031196;28;20024;-71
2021/01/16 08:28:00;;;;;;;45.25;23.83;;;3.30;99.90;;;;;;5050885;28;20032;-69
2021/01/16 08:30:34;;;;;;;45.50;24.80;;;3.70;99.90;;;;;;5049468;28;20124;-69
2021/01/16 08:33:10;;;;;;;52.42;29.75;;;3.60;99.90;;;;;;5047754;28;20036;-70
2021/01/16 08:35:48;;;;;;;37.28;22.08;;;3.70;99.90;;;;;;5046033;28;20022;-69
2021/01/16 08:38:17;;;;;;;38.92;22.40;;;3.70;99.90;;;;;;5047333;28;20041;-69
2021/01/16 08:41:06;;;;;;;40.60;23.73;;;3.60;99.90;;;;;;5048840;28;20029;-70
2021/01/16 08:43:43;;;;;;;40.33;23.15;;;3.50;99.90;;;;;;5046235;28;20113;-69
2021/01/16 08:46:23;;;;;;;47.72;24.67;;;3.50;99.90;;;;;;5050027;28;20021;-69
2021/01/16 08:48:57;;;;;;;46.05;23.40;;;3.50;99.90;;;;;;5045158;28;20250;-69
2021/01/16 08:51:31;;;;;;;43.13;22.70;;;3.40;99.90;;;;;;5046861;28;20025;-69
2021/01/16 08:54:16;;;;;;;43.50;24.58;;;3.40;99.90;;;;;;5049852;28;20017;-70
2021/01/16 08:56:54;;;;;;;45.00;25.25;;;3.40;99.90;;;;;;5045691;28;20029;-69
2021/01/16 08:59:21;;;;;;;45.20;23.25;;;3.40;99.90;;;;;;5045072;28;20107;-69
2021/01/16 09:01:53;;;;;;;41.17;23.30;;;3.40;99.90;;;;;;5045588;28;20039;-70
2021/01/16 09:04:24;;;;;;;40.53;22.95;;;3.40;99.90;;;;;;5050614;28;20745;-69
2021/01/16 09:06:51;;;;;;;43.25;23.55;;;3.40;99.90;;;;;;5022548;28;20469;-69
2021/01/16 09:09:25;;;;;;;42.05;23.10;;;3.40;99.90;;;;;;5029632;28;20031;-69
2021/01/16 09:12:06;;;;;;;42.60;22.88;;;3.40;99.90;;;;;;5047571;28;20044;-69
2021/01/16 09:14:33;;;;;;;44.53;23.60;;;3.40;99.90;;;;;;5047881;28;20030;-69
2021/01/16 09:17:23;;;;;;;45.72;23.80;;;3.40;99.90;;;;;;5049451;28;20480;-69
2021/01/16 09:19:57;;;;;;;46.25;24.02;;;3.50;99.90;;;;;;5047371;28;20813;-69
2021/01/16 09:22:32;;;;;;;45.13;24.17;;;3.50;99.90;;;;;;5051698;28;20029;-69
2021/01/16 09:25:24;;;;;;;43.08;24.58;;;3.50;99.90;;;;;;5029092;28;20406;-70
2021/01/16 09:27:52;;;;;;;37.60;22.67;;;3.50;99.90;;;;;;5047277;28;20111;-69
2021/01/16 09:30:21;;;;;;;45.78;24.48;;;3.60;99.90;;;;;;5049732;28;20019;-70
2021/01/16 09:32:48;;;;;;;38.58;21.95;;;3.60;99.90;;;;;;5045913;28;20078;-69
2021/01/16 09:35:32;;;;;;;36.05;21.27;;;3.60;99.90;;;;;;5048112;28;20033;-70
2021/01/16 09:37:58;;;;;;;39.95;20.77;;;3.50;99.90;;;;;;5048644;28;20041;-70
2021/01/16 09:40:35;;;;;;;36.25;21.23;;;3.60;99.90;;;;;;5029590;28;20082;-70
2021/01/16 09:43:14;;;;;;;35.47;18.95;;;3.50;99.90;;;;;;5049617;28;20026;-70
2021/01/16 09:45:56;;;;;;;37.60;19.23;;;3.50;99.90;;;;;;5044266;28;20074;-70
2021/01/16 09:48:48;;;;;;;32.45;17.73;;;3.60;99.90;;;;;;5047363;28;20021;-71
2021/01/16 09:51:14;;;;;;;40.17;20.20;;;3.60;99.90;;;;;;5046475;28;20093;-69
2021/01/16 09:53:41;;;;;;;31.83;18.00;;;3.60;99.90;;;;;;5043565;28;20104;-70
2021/01/16 09:56:09;;;;;;;34.03;18.00;;;3.60;99.90;;;;;;5041241;28;20390;-71
2021/01/16 09:58:40;;;;;;;37.70;20.20;;;3.70;99.90;;;;;;5045679;28;20034;-70
2021/01/16 10:01:19;;;;;;;34.42;19.05;;;3.80;99.90;;;;;;5046696;28;20021;-70
2021/01/16 10:03:46;;;;;;;34.97;17.95;;;3.70;99.90;;;;;;5047947;28;20025;-70
2021/01/16 10:06:16;;;;;;;36.22;18.65;;;3.70;99.90;;;;;;5048614;28;20028;-71
2021/01/16 10:08:43;;;;;;;37.03;19.60;;;3.80;99.90;;;;;;5045304;28;20074;-71
2021/01/16 10:11:10;;;;;;;36.45;18.80;;;3.80;99.90;;;;;;5045807;28;20361;-70
2021/01/16 10:13:37;;;;;;;37.08;18.65;;;3.80;99.90;;;;;;5048289;28;20020;-72
2021/01/16 10:16:05;;;;;;;32.75;18.70;;;3.80;99.90;;;;;;5032415;28;20032;-71
2021/01/16 10:18:33;;;;;;;33.88;18.48;;;3.90;99.90;;;;;;5040747;28;20060;-71
2021/01/16 10:20:59;;;;;;;32.13;17.83;;;3.80;99.90;;;;;;5047109;28;20036;-72
2021/01/16 10:23:30;;;;;;;33.78;18.77;;;3.90;99.90;;;;;;5032242;28;20023;-71
2021/01/16 10:26:01;;;;;;;34.92;18.75;;;3.90;99.90;;;;;;5047410;28;20039;-71
2021/01/16 10:28:28;;;;;;;34.67;20.63;;;3.90;99.90;;;;;;5045384;28;20124;-71
2021/01/16 10:31:04;;;;;;;32.42;19.40;;;3.90;99.90;;;;;;5047362;28;20406;-71
2021/01/16 10:33:44;;;;;;;41.38;22.13;;;3.90;99.90;;;;;;5045268;28;20099;-70
2021/01/16 10:36:15;;;;;;;33.92;18.48;;;3.90;99.90;;;;;;5046869;28;20033;-70
2021/01/16 10:38:42;;;;;;;36.40;19.63;;;3.80;99.90;;;;;;5040138;28;20036;-70
2021/01/16 10:41:14;;;;;;;39.38;19.50;;;3.90;99.90;;;;;;5047612;28;20029;-71
2021/01/16 10:43:40;;;;;;;34.05;19.48;;;3.80;99.90;;;;;;5046866;28;20025;-71
2021/01/16 10:46:15;;;;;;;32.22;18.27;;;3.90;99.90;;;;;;5047683;28;20109;-70
2021/01/16 10:48:41;;;;;;;39.22;20.77;;;3.80;99.90;;;;;;5047630;28;20017;-71
2021/01/16 10:51:11;;;;;;;34.65;18.88;;;3.90;99.90;;;;;;5049574;28;20387;-71
2021/01/16 10:53:41;;;;;;;34.20;18.95;;;4.00;99.90;;;;;;5048754;28;20117;-71
2021/01/16 10:56:15;;;;;;;37.08;19.33;;;3.90;99.90;;;;;;5023565;28;20600;-71
2021/01/16 10:58:43;;;;;;;36.92;19.65;;;3.90;99.90;;;;;;5042135;28;20166;-70
2021/01/16 11:01:10;;;;;;;37.17;19.95;;;4.00;99.90;;;;;;5024976;28;20461;-70
2021/01/16 11:03:35;;;;;;;34.10;19.65;;;3.80;99.90;;;;;;5048594;28;20021;-71
2021/01/16 11:06:08;;;;;;;30.88;17.38;;;3.90;99.90;;;;;;5048881;28;20055;-71
2021/01/16 11:08:39;;;;;;;34.50;18.83;;;3.90;99.90;;;;;;5028498;28;20029;-71
2021/01/16 11:11:28;;;;;;;33.53;17.52;;;3.90;99.90;;;;;;5028832;28;20124;-71
2021/01/16 11:13:54;;;;;;;27.58;15.07;;;3.90;99.90;;;;;;5048322;28;20033;-71
2021/01/16 11:16:22;;;;;;;27.42;16.15;;;3.90;99.90;;;;;;5044944;28;20398;-71
2021/01/16 11:18:49;;;;;;;34.80;16.77;;;3.90;99.90;;;;;;5046183;28;20037;-71
2021/01/16 11:21:51;;;;;;;28.77;16.08;;;3.90;99.90;;;;;;5049956;28;20036;-70
2021/01/16 11:24:38;;;;;;;23.52;13.95;;;4.00;99.90;;;;;;5026338;28;20032;-70
2021/01/16 11:27:09;;;;;;;31.83;21.33;;;3.90;99.90;;;;;;5048887;28;20032;-71
2021/01/16 11:29:42;;;;;;;26.10;15.80;;;3.90;99.90;;;;;;5043008;28;20030;-70
2021/01/16 11:32:33;;;;;;;25.33;14.18;;;4.00;99.90;;;;;;5041387;28;20031;-71
2021/01/16 11:35:06;;;;;;;22.63;15.18;;;4.00;99.90;;;;;;5044134;28;20067;-71
2021/01/16 11:37:53;;;;;;;23.52;14.73;;;4.00;99.90;;;;;;5042858;28;20104;-71
2021/01/16 11:40:26;;;;;;;22.35;13.35;;;4.00;99.90;;;;;;5049046;28;20063;-72
2021/01/16 11:42:57;;;;;;;18.73;10.63;;;4.00;99.90;;;;;;5049988;28;20127;-71
2021/01/16 11:45:25;;;;;;;20.20;12.20;;;3.90;99.90;;;;;;5045094;28;20100;-70
2021/01/16 11:48:01;;;;;;;18.20;10.63;;;3.90;99.90;;;;;;5047921;28;20071;-71
2021/01/16 11:50:29;;;;;;;16.80;10.95;;;3.80;99.90;;;;;;5052588;28;20056;-71
2021/01/16 11:52:54;;;;;;;17.60;10.13;;;3.80;99.90;;;;;;5047372;28;20021;-71
2021/01/16 11:55:21;;;;;;;14.45;8.27;;;3.80;99.90;;;;;;5048535;28;20092;-71
2021/01/16 11:57:47;;;;;;;18.00;9.15;;;3.80;99.90;;;;;;5028533;28;20120;-71
2021/01/16 12:00:14;;;;;;;17.77;8.93;;;3.80;99.90;;;;;;5044916;28;20045;-70
2021/01/16 12:02:45;;;;;;;14.30;8.80;;;3.90;99.90;;;;;;5050708;28;20025;-71
2021/01/16 12:05:15;;;;;;;16.15;9.73;;;3.90;99.90;;;;;;5042325;28;20045;-70
2021/01/16 12:07:56;;;;;;;13.50;8.90;;;3.80;99.90;;;;;;5049908;28;20021;-70
2021/01/16 12:10:29;;;;;;;14.20;9.27;;;3.90;99.90;;;;;;5050478;28;20040;-71
2021/01/16 12:12:57;;;;;;;13.45;8.48;;;3.90;99.90;;;;;;5049735;28;20032;-71
2021/01/16 12:15:25;;;;;;;12.93;9.70;;;3.80;99.90;;;;;;5042561;28;20627;-71
2021/01/16 12:17:53;;;;;;;14.80;9.15;;;3.80;99.90;;;;;;5044199;28;20025;-71
2021/01/16 12:20:22;;;;;;;14.48;9.07;;;3.90;99.90;;;;;;5048448;28;20040;-70
2021/01/16 12:22:51;;;;;;;12.73;8.70;;;3.90;99.90;;;;;;5050323;28;20028;-70
2021/01/16 12:25:18;;;;;;;14.10;9.48;;;3.90;99.90;;;;;;5027017;28;20021;-70
2021/01/16 12:27:53;;;;;;;19.15;10.35;;;3.80;99.90;;;;;;5048871;28;20035;-70
2021/01/16 12:30:21;;;;;;;15.35;8.90;;;3.80;99.90;;;;;;5045946;28;20373;-71
2021/01/16 12:32:48;;;;;;;16.35;10.15;;;3.70;99.90;;;;;;5042978;28;20465;-71
2021/01/16 12:35:15;;;;;;;12.95;9.23;;;3.70;99.90;;;;;;5025039;28;20508;-71
2021/01/16 12:37:41;;;;;;;15.23;9.05;;;3.60;99.90;;;;;;5047306;28;20049;-71
2021/01/16 12:40:18;;;;;;;17.67;10.23;;;3.70;99.90;;;;;;5028608;28;20057;-71
2021/01/16 12:42:44;;;;;;;19.15;9.98;;;3.80;99.90;;;;;;5043905;28;20024;-71
2021/01/16 12:45:15;;;;;;;16.10;9.98;;;3.90;99.90;;;;;;5028783;28;20055;-70
2021/01/16 12:47:45;;;;;;;25.08;11.68;;;3.80;99.90;;;;;;5045880;28;20101;-72
2021/01/16 12:50:12;;;;;;;18.83;11.43;;;3.90;99.90;;;;;;5039789;28;20083;-72
2021/01/16 12:52:38;;;;;;;19.40;11.77;;;3.90;99.90;;;;;;5047931;28;20029;-72
2021/01/16 12:55:03;;;;;;;19.85;11.35;;;3.80;99.90;;;;;;5049406;28;20028;-72
2021/01/16 12:57:31;;;;;;;19.05;11.63;;;3.80;99.90;;;;;;5048605;28;20029;-72
2021/01/16 12:59:58;;;;;;;20.88;11.27;;;3.80;99.90;;;;;;5025872;28;20044;-72
2021/01/16 13:02:25;;;;;;;19.63;11.57;;;3.70;99.90;;;;;;5026709;28;20082;-72